createdAt,value
2022-09-11T00:03:15.796Z,102
2022-09-11T00:08:55.643Z,96
2022-09-11T00:14:35.503Z,106
2022-09-11T00:20:15.657Z,98
2022-09-11T00:25:55.814Z,98
2022-09-11T00:31:37.197Z,98
2022-09-11T00:37:17.334Z,98
2022-09-11T00:42:57.438Z,98
2022-09-11T00:48:37.853Z,112
2022-09-11T00:54:17.871Z,106
2022-09-11T00:59:58.079Z,104
2022-09-11T01:05:38.402Z,108
2022-09-11T01:11:18.547Z,110
2022-09-11T01:16:58.493Z,104
2022-09-11T01:22:38.870Z,124
2022-09-11T01:28:18.537Z,128
2022-09-11T01:33:58.454Z,112
2022-09-11T01:45:18.919Z,98
2022-09-11T01:50:59.858Z,94
2022-09-11T01:56:40.136Z,122
2022-09-11T02:02:21.419Z,92
2022-09-11T02:08:01.721Z,106
2022-09-11T02:13:43.457Z,94
2022-09-11T02:25:03.968Z,100
2022-09-11T02:30:44.681Z,102
2022-09-11T02:36:24.763Z,94
2022-09-11T02:42:04.746Z,90
2022-09-11T02:47:48.028Z,106
2022-09-11T02:53:28.110Z,100
2022-09-11T02:59:08.441Z,104
2022-09-11T03:04:48.896Z,100
2022-09-11T03:10:29.214Z,100
2022-09-11T03:16:10.189Z,98
2022-09-11T03:21:50.689Z,94
2022-09-11T03:38:50.758Z,112
2022-09-11T03:50:10.974Z,94
2022-09-11T03:55:50.971Z,98
2022-09-11T04:01:30.549Z,102
2022-09-11T04:07:11.132Z,94
2022-09-11T04:12:51.323Z,108
2022-09-11T04:18:31.367Z,98
2022-09-11T04:24:11.518Z,106
2022-09-11T04:29:51.944Z,98
2022-09-11T04:35:32.150Z,100
2022-09-11T04:41:12.456Z,94
2022-09-11T04:46:53.097Z,94
2022-09-11T04:52:33.456Z,112
2022-09-11T04:58:13.869Z,104
2022-09-11T05:03:54.069Z,100
2022-09-11T05:09:34.413Z,98
2022-09-11T05:15:14.658Z,88
2022-09-11T05:20:55.200Z,88
2022-09-11T05:32:15.355Z,102
2022-09-11T05:37:55.674Z,90
2022-09-11T05:43:35.741Z,98
2022-09-11T05:49:16.167Z,88
2022-09-11T05:54:56.657Z,116
2022-09-11T06:00:36.536Z,104
2022-09-11T06:06:19.190Z,90
2022-09-11T06:12:01.947Z,92
2022-09-11T06:17:50.948Z,104
2022-09-11T06:23:34.438Z,94
2022-09-11T06:29:14.733Z,82
2022-09-11T06:34:57.628Z,98
2022-09-11T06:40:38.238Z,98
2022-09-11T06:46:17.998Z,110
2022-09-11T06:51:58.140Z,98
2022-09-11T06:57:43.071Z,106
2022-09-11T07:03:23.691Z,102
2022-09-11T07:09:06.922Z,90
2022-09-11T07:15:02.523Z,98
2022-09-11T07:26:33.720Z,94
2022-09-11T07:32:15.031Z,94
2022-09-11T07:38:01.102Z,110
2022-09-11T07:43:50.922Z,100
2022-09-11T07:49:43.221Z,94
2022-09-11T07:55:29.199Z,112
2022-09-11T08:01:10.197Z,106
2022-09-11T08:06:52.978Z,110
2022-09-11T08:12:41.267Z,102
2022-09-11T08:18:26.512Z,100
2022-09-11T08:24:10.438Z,116
2022-09-11T08:29:54.137Z,60
2022-09-11T08:35:39.161Z,72
2022-09-11T08:41:28.368Z,106
2022-09-11T08:47:08.530Z,104
2022-09-11T08:52:50.953Z,112
2022-09-11T08:58:32.988Z,110
2022-09-11T09:04:13.582Z,116
2022-09-11T09:09:53.811Z,106
2022-09-11T09:15:39.517Z,50
2022-09-11T09:27:17.918Z,76
2022-09-11T09:32:58.357Z,8
2022-09-11T09:38:38.506Z,34
2022-09-11T09:44:20.431Z,14
2022-09-11T09:50:01.283Z,18
2022-09-11T09:55:41.526Z,94
2022-09-11T10:01:21.393Z,96
2022-09-11T10:07:04.905Z,98
2022-09-11T10:12:44.660Z,70
2022-09-11T10:18:24.626Z,74
2022-09-11T10:24:04.853Z,18
2022-09-11T10:29:50.890Z,18
2022-09-11T10:35:32.129Z,0
2022-09-11T10:41:17.917Z,24
2022-09-11T10:46:58.506Z,28
2022-09-11T10:52:45.372Z,22
2022-09-11T11:09:52.506Z,84
2022-09-11T11:15:38.751Z,30
2022-09-11T11:21:21.159Z,2
2022-09-11T11:27:05.815Z,44
2022-09-11T11:32:47.433Z,94
2022-09-11T11:38:28.240Z,78
2022-09-11T11:44:08.683Z,2
2022-09-11T11:49:49.311Z,30
2022-09-11T11:55:33.931Z,20
2022-09-11T12:01:14.264Z,94
2022-09-11T12:06:53.881Z,90
2022-09-11T12:12:34.486Z,6
2022-09-11T12:18:14.637Z,0
2022-09-11T12:23:56.783Z,68
2022-09-11T12:29:37.112Z,98
2022-09-11T12:52:29.364Z,16
2022-09-11T12:58:12.061Z,4
2022-09-11T13:03:52.146Z,86
2022-09-11T13:09:32.237Z,92
2022-09-11T13:15:12.334Z,102
2022-09-11T13:20:55.715Z,2
2022-09-11T13:26:39.362Z,0
2022-09-11T13:32:25.709Z,14
2022-09-11T13:38:06.544Z,6
2022-09-11T13:43:46.923Z,0
2022-09-11T13:49:29.535Z,0
2022-09-11T13:55:12.934Z,102
2022-09-11T14:00:59.752Z,2
2022-09-11T14:06:42.692Z,6
2022-09-11T14:12:26.577Z,12
2022-09-11T14:18:09.363Z,0
2022-09-11T14:23:49.843Z,90
2022-09-11T14:29:29.751Z,96
2022-09-11T14:35:09.833Z,94
2022-09-11T14:40:49.682Z,74
2022-09-11T14:46:30.256Z,92
2022-09-11T14:52:13.221Z,90
2022-09-11T15:03:37.228Z,96
2022-09-11T15:09:17.398Z,92
2022-09-11T15:15:01.981Z,88
2022-09-11T15:26:22.974Z,90
2022-09-11T15:32:03.464Z,88
2022-09-11T15:37:43.736Z,70
2022-09-11T15:43:24.539Z,72
2022-09-11T15:54:45.990Z,76
2022-09-11T16:00:26.187Z,90
2022-09-11T16:06:06.463Z,98
2022-09-11T16:11:46.690Z,76
2022-09-11T16:17:26.881Z,84
2022-09-11T16:23:07.068Z,78
2022-09-11T16:28:47.376Z,80
2022-09-11T16:34:27.481Z,86
2022-09-11T16:40:08.016Z,72
2022-09-11T16:45:48.947Z,78
2022-09-11T16:51:29.335Z,74
2022-09-11T16:57:09.769Z,68
2022-09-11T17:02:50.402Z,68
2022-09-11T17:19:54.849Z,90
2022-09-11T17:25:35.015Z,80
2022-09-11T17:31:15.482Z,72
2022-09-11T17:36:56.179Z,90
2022-09-11T17:42:36.823Z,76
2022-09-11T17:48:16.902Z,72
2022-09-11T17:53:57.565Z,64
2022-09-11T17:59:37.669Z,82
2022-09-11T18:05:17.562Z,66
2022-09-11T18:10:57.848Z,68
2022-09-11T18:16:38.785Z,112
2022-09-11T18:22:20.376Z,112
2022-09-11T18:28:00.434Z,106
2022-09-11T18:33:40.928Z,92
2022-09-11T18:39:20.880Z,106
2022-09-11T18:45:02.367Z,92
2022-09-11T18:50:43.446Z,104
2022-09-11T18:56:26.922Z,102
2022-09-11T19:02:10.708Z,104
2022-09-11T19:19:14.439Z,106
2022-09-11T19:24:54.987Z,100
2022-09-11T19:30:34.975Z,90
2022-09-11T19:36:15.869Z,102
2022-09-11T19:41:55.723Z,102
2022-09-11T19:53:15.520Z,110
2022-09-11T19:58:55.649Z,90
2022-09-11T20:04:35.522Z,94
2022-09-11T20:10:15.341Z,100
2022-09-11T20:15:55.919Z,94
2022-09-11T20:21:35.971Z,106
2022-09-11T20:27:16.544Z,100
2022-09-11T20:32:56.576Z,96
2022-09-11T20:38:37.375Z,90
2022-09-11T20:44:18.297Z,98
2022-09-11T20:50:01.199Z,100
2022-09-11T20:55:42.644Z,102
2022-09-11T21:18:29.527Z,110
2022-09-11T21:24:12.527Z,106
2022-09-11T21:29:52.456Z,94
2022-09-11T21:35:32.512Z,94
2022-09-11T21:41:12.279Z,96
2022-09-11T21:46:53.047Z,94
2022-09-11T21:52:32.951Z,90
2022-09-11T21:58:13.014Z,108
2022-09-11T22:03:52.748Z,106
2022-09-11T22:09:32.572Z,100
2022-09-11T22:15:12.346Z,104
2022-09-11T22:20:52.083Z,104
2022-09-11T22:32:11.517Z,92
2022-09-11T22:37:51.634Z,106
2022-09-11T22:43:31.995Z,98
2022-09-11T22:49:12.242Z,108
2022-09-11T23:06:12.133Z,94
2022-09-11T23:11:52.322Z,102
2022-09-11T23:17:33.841Z,96
2022-09-11T23:23:13.728Z,106
2022-09-11T23:28:53.603Z,96
2022-09-11T23:34:33.620Z,94
2022-09-11T23:40:14.094Z,102
2022-09-11T23:45:54.994Z,102
2022-09-11T23:51:34.925Z,94
2022-09-11T23:57:14.467Z,106
